Time;durP1;ratioP1;P1;durP2;ratioP2;P2;SDS_P1;SDS_P2;PMS_P1;PMS_P2;Temp;Humidity;BMP_temperature;BMP_pressure;BME280_temperature;BME280_humidity;BME280_pressure;Samples;Min_cycle;Max_cycle;Signal;HPM_P1;HPM_P2
2021/07/22 00:00:08;;;;;;;10.30;8.57;;;24.60;79.60;;;;;;5041233;28;20234;-70
2021/07/22 00:02:35;;;;;;;11.13;9.30;;;24.60;79.80;;;;;;5039604;28;20217;-70
2021/07/22 00:05:05;;;;;;;13.83;10.10;;;24.60;79.90;;;;;;5047843;28;20206;-70
2021/07/22 00:07:32;;;;;;;12.60;9.00;;;24.60;80.00;;;;;;5048883;28;20647;-70
2021/07/22 00:09:59;;;;;;;13.77;9.37;;;24.50;80.00;;;;;;5045456;28;20218;-70
2021/07/22 00:12:26;;;;;;;10.80;9.57;;;24.50;80.20;;;;;;5048140;28;20210;-70
2021/07/22 00:14:53;;;;;;;10.13;8.97;;;24.50;80.40;;;;;;5044651;28;20214;-70
2021/07/22 00:17:20;;;;;;;10.53;9.33;;;24.50;80.60;;;;;;5044315;28;20223;-70
2021/07/22 00:19:48;;;;;;;15.63;9.60;;;24.40;80.70;;;;;;5049147;28;20242;-70
2021/07/22 00:22:15;;;;;;;13.67;9.23;;;24.40;80.90;;;;;;5044613;28;20218;-70
2021/07/22 00:24:42;;;;;;;13.30;9.93;;;24.40;81.00;;;;;;5044821;28;20594;-70
2021/07/22 00:27:09;;;;;;;12.27;9.17;;;24.40;81.20;;;;;;5036843;28;20222;-70
2021/07/22 00:29:36;;;;;;;12.20;9.20;;;24.40;81.30;;;;;;5048685;28;20222;-70
2021/07/22 00:32:03;;;;;;;13.03;10.47;;;24.30;81.30;;;;;;5044635;28;20227;-70
2021/07/22 00:34:30;;;;;;;10.43;9.33;;;24.40;81.50;;;;;;5044360;28;20534;-70
2021/07/22 00:36:57;;;;;;;12.03;9.50;;;24.30;81.40;;;;;;5047601;28;20218;-70
2021/07/22 00:39:24;;;;;;;15.27;9.83;;;24.30;81.50;;;;;;5045259;28;20309;-70
2021/07/22 00:41:51;;;;;;;11.70;9.90;;;24.30;81.60;;;;;;5047043;28;20265;-70
2021/07/22 00:44:18;;;;;;;10.97;9.53;;;24.30;81.60;;;;;;5048088;28;20234;-70
2021/07/22 00:46:45;;;;;;;14.03;8.93;;;24.20;81.70;;;;;;5045587;28;20525;-70
2021/07/22 00:49:12;;;;;;;14.87;10.20;;;24.20;81.80;;;;;;5046262;28;20658;-70
2021/07/22 00:51:39;;;;;;;12.63;11.30;;;24.30;81.80;;;;;;5045481;28;20210;-70
2021/07/22 00:54:06;;;;;;;12.33;10.13;;;24.30;81.90;;;;;;5045740;28;20261;-70
2021/07/22 00:56:34;;;;;;;11.23;9.77;;;24.30;81.80;;;;;;5045148;28;20222;-70
2021/07/22 00:59:02;;;;;;;13.67;10.20;;;24.30;81.70;;;;;;5045703;28;20222;-70
2021/07/22 01:01:29;;;;;;;11.43;9.93;;;24.30;81.70;;;;;;5045523;28;20238;-70
2021/07/22 01:03:57;;;;;;;12.63;10.40;;;24.40;81.60;;;;;;5043678;28;20230;-70
2021/07/22 01:06:27;;;;;;;12.33;10.67;;;24.40;81.70;;;;;;5045326;28;20215;-70
2021/07/22 01:08:54;;;;;;;11.03;9.83;;;24.40;81.60;;;;;;5045424;28;20214;-70
2021/07/22 01:11:21;;;;;;;15.00;10.57;;;24.40;81.50;;;;;;5045148;28;20292;-70
2021/07/22 01:13:48;;;;;;;11.87;10.37;;;24.40;81.50;;;;;;5045589;28;20698;-70
2021/07/22 01:16:15;;;;;;;12.33;10.60;;;24.40;81.40;;;;;;5044789;28;20254;-70
2021/07/22 01:18:42;;;;;;;12.77;10.80;;;24.40;81.50;;;;;;5045877;28;20217;-70
2021/07/22 01:21:10;;;;;;;11.33;9.60;;;24.40;81.50;;;;;;5044414;28;20246;-70
2021/07/22 01:23:37;;;;;;;15.17;10.70;;;24.40;81.50;;;;;;5043018;28;20302;-70
2021/07/22 01:26:04;;;;;;;12.13;10.77;;;24.40;81.50;;;;;;5041791;28;20207;-70
2021/07/22 01:28:31;;;;;;;15.80;10.50;;;24.30;81.40;;;;;;5046335;28;20306;-70
2021/07/22 01:30:58;;;;;;;12.73;10.27;;;24.30;81.50;;;;;;5042100;28;20216;-70
2021/07/22 01:33:25;;;;;;;13.63;10.50;;;24.30;81.50;;;;;;5042820;28;20265;-70
2021/07/22 01:35:52;;;;;;;13.30;10.57;;;24.20;81.50;;;;;;5043392;28;20222;-70
2021/07/22 01:38:19;;;;;;;15.07;10.33;;;24.20;81.60;;;;;;5046395;28;20238;-70
2021/07/22 01:40:46;;;;;;;13.13;9.90;;;24.20;81.80;;;;;;5043069;28;20219;-70
2021/07/22 01:43:13;;;;;;;12.50;10.77;;;24.20;81.80;;;;;;5040751;28;20273;-70
2021/07/22 01:45:40;;;;;;;14.87;10.83;;;24.10;81.90;;;;;;5038873;28;20215;-70
2021/07/22 01:48:07;;;;;;;14.23;11.53;;;24.10;82.00;;;;;;5046200;28;20240;-70
2021/07/22 01:50:34;;;;;;;14.47;11.80;;;24.00;82.20;;;;;;5043488;28;20227;-70
2021/07/22 01:53:03;;;;;;;13.80;10.87;;;23.90;82.40;;;;;;5046447;28;20641;-70
2021/07/22 01:55:31;;;;;;;17.23;11.57;;;23.90;82.70;;;;;;5042596;28;20214;-70
2021/07/22 01:58:00;;;;;;;14.20;11.50;;;23.80;82.80;;;;;;5042169;28;20223;-70
2021/07/22 02:00:28;;;;;;;12.83;11.03;;;23.70;82.90;;;;;;5046070;28;20246;-70
2021/07/22 02:02:55;;;;;;;13.00;10.17;;;23.80;83.00;;;;;;5041992;28;20615;-70
2021/07/22 02:05:22;;;;;;;15.00;11.40;;;23.80;83.10;;;;;;5042333;28;20295;-70
2021/07/22 02:07:49;;;;;;;12.00;10.77;;;23.80;83.10;;;;;;5045010;28;20206;-70
2021/07/22 02:10:16;;;;;;;14.47;10.07;;;23.80;83.20;;;;;;5042948;28;20215;-70
2021/07/22 02:12:43;;;;;;;12.50;10.67;;;23.70;83.20;;;;;;5044535;28;20702;-70
2021/07/22 02:15:10;;;;;;;11.63;10.07;;;23.70;83.30;;;;;;5042314;28;20225;-70
2021/07/22 02:17:37;;;;;;;12.03;10.83;;;23.70;83.40;;;;;;5044154;28;20230;-70
2021/07/22 02:20:05;;;;;;;13.93;11.30;;;23.80;83.40;;;;;;5041551;28;20235;-70
2021/07/22 02:22:32;;;;;;;11.63;10.37;;;23.70;83.90;;;;;;5043628;28;20260;-70
2021/07/22 02:24:59;;;;;;;13.33;10.30;;;23.60;83.10;;;;;;5047529;28;20217;-70
2021/07/22 02:27:26;;;;;;;11.00;9.47;;;23.60;83.10;;;;;;5040475;28;20309;-70
2021/07/22 02:29:53;;;;;;;12.07;9.73;;;23.60;83.10;;;;;;5043895;28;20218;-70
2021/07/22 02:32:20;;;;;;;13.33;10.50;;;23.50;83.10;;;;;;5041582;28;20836;-70
2021/07/22 02:34:47;;;;;;;16.30;10.63;;;23.50;83.10;;;;;;5043316;28;20632;-70
2021/07/22 02:37:14;;;;;;;13.23;10.13;;;23.40;83.10;;;;;;5043586;28;20822;-70
2021/07/22 02:39:41;;;;;;;14.23;9.43;;;23.40;83.80;;;;;;5041354;28;20689;-70
2021/07/22 02:42:08;;;;;;;13.57;10.50;;;23.30;83.30;;;;;;5042650;28;20615;-70
2021/07/22 02:44:39;;;;;;;12.30;11.10;;;23.30;83.50;;;;;;5044519;28;20202;-70
2021/07/22 02:47:10;;;;;;;12.77;10.83;;;23.30;83.60;;;;;;5042537;28;20265;-70
2021/07/22 02:49:38;;;;;;;13.00;10.13;;;23.30;83.70;;;;;;5043394;28;20206;-70
2021/07/22 02:52:07;;;;;;;12.57;10.30;;;23.30;83.90;;;;;;5043028;28;20650;-71
2021/07/22 02:54:35;;;;;;;11.53;10.10;;;23.20;84.00;;;;;;5042700;28;20217;-70
2021/07/22 02:57:02;;;;;;;11.30;10.07;;;23.20;84.20;;;;;;5042803;28;20219;-70
2021/07/22 02:59:29;;;;;;;12.87;11.30;;;23.20;84.40;;;;;;5043611;28;20638;-70
2021/07/22 03:01:56;;;;;;;11.93;10.73;;;23.20;84.60;;;;;;5041325;28;20235;-70
2021/07/22 03:04:24;;;;;;;12.93;10.20;;;23.20;84.70;;;;;;5043070;28;20226;-70
2021/07/22 03:06:51;;;;;;;14.77;11.23;;;23.20;85.00;;;;;;5044106;28;20210;-70
2021/07/22 03:09:18;;;;;;;12.17;10.97;;;23.20;85.10;;;;;;5042727;28;20233;-70
2021/07/22 03:11:45;;;;;;;12.80;11.40;;;23.20;85.30;;;;;;5044394;28;20276;-70
2021/07/22 03:14:12;;;;;;;14.00;11.27;;;23.20;85.50;;;;;;5042190;28;20223;-70
2021/07/22 03:16:39;;;;;;;12.83;10.23;;;23.20;85.60;;;;;;5044417;28;20226;-70
2021/07/22 03:19:06;;;;;;;13.63;10.17;;;23.20;85.60;;;;;;5041865;28;20280;-71
2021/07/22 03:21:33;;;;;;;11.23;9.97;;;23.20;85.70;;;;;;5044871;28;20299;-71
2021/07/22 03:24:00;;;;;;;11.73;10.37;;;23.20;85.60;;;;;;5041863;28;20225;-71
2021/07/22 03:26:28;;;;;;;11.67;10.27;;;23.20;85.60;;;;;;5047321;28;20301;-71
2021/07/22 03:28:54;;;;;;;16.13;10.60;;;23.20;85.60;;;;;;5044174;28;20275;-70
2021/07/22 03:31:22;;;;;;;10.87;9.77;;;23.20;85.70;;;;;;5039846;28;20219;-70
2021/07/22 03:33:49;;;;;;;10.70;9.60;;;23.20;85.70;;;;;;5039215;28;20218;-70
2021/07/22 03:36:16;;;;;;;13.30;9.90;;;23.20;85.80;;;;;;5041491;28;20223;-70
2021/07/22 03:38:43;;;;;;;11.90;10.67;;;23.20;85.80;;;;;;5043624;28;20246;-70
2021/07/22 03:41:17;;;;;;;14.20;10.67;;;23.20;85.70;;;;;;5044559;28;20245;-70
2021/07/22 03:43:44;;;;;;;10.67;9.53;;;23.20;85.70;;;;;;5041840;28;20209;-70
2021/07/22 03:46:11;;;;;;;10.80;9.67;;;23.20;85.70;;;;;;5041410;28;20206;-70
2021/07/22 03:48:38;;;;;;;11.47;10.33;;;23.20;85.70;;;;;;5041166;28;20246;-70
2021/07/22 03:51:05;;;;;;;13.27;10.03;;;23.20;85.70;;;;;;5044816;28;20588;-70
2021/07/22 03:53:32;;;;;;;14.03;9.37;;;23.20;85.70;;;;;;5041318;28;20218;-70
2021/07/22 03:56:00;;;;;;;13.03;9.80;;;23.30;85.60;;;;;;5041027;28;20694;-70
2021/07/22 03:58:28;;;;;;;11.70;9.77;;;23.30;85.50;;;;;;5044218;28;20297;-70
2021/07/22 04:00:57;;;;;;;12.37;9.70;;;23.30;85.30;;;;;;5041513;28;20273;-70
2021/07/22 04:03:26;;;;;;;10.90;9.13;;;23.30;85.10;;;;;;5041079;28;20219;-70
2021/07/22 04:05:53;;;;;;;10.43;9.37;;;23.40;85.00;;;;;;5045213;28;20215;-71
2021/07/22 04:08:20;;;;;;;11.83;9.87;;;23.40;84.80;;;;;;5044969;28;20211;-71
2021/07/22 04:10:47;;;;;;;11.43;9.70;;;23.40;84.60;;;;;;5047843;28;20211;-71
2021/07/22 04:13:14;;;;;;;11.40;9.23;;;23.50;84.50;;;;;;5045420;28;20219;-71
2021/07/22 04:15:41;;;;;;;9.53;8.60;;;23.50;84.20;;;;;;5047197;28;20229;-70
2021/07/22 04:18:08;;;;;;;11.50;9.70;;;23.60;83.80;;;;;;5044657;28;20297;-70
2021/07/22 04:20:35;;;;;;;9.83;8.83;;;23.60;83.40;;;;;;5047065;28;20257;-70
2021/07/22 04:23:02;;;;;;;10.57;8.40;;;23.70;83.20;;;;;;5045635;28;20523;-70
2021/07/22 04:25:29;;;;;;;12.90;9.10;;;23.70;83.00;;;;;;5045025;28;20218;-70
2021/07/22 04:27:56;;;;;;;17.17;10.07;;;23.70;82.70;;;;;;5044850;28;20230;-70
2021/07/22 04:30:23;;;;;;;13.37;10.43;;;23.70;82.70;;;;;;5046429;28;20583;-70
2021/07/22 04:32:51;;;;;;;12.47;11.13;;;23.70;82.70;;;;;;5043947;28;20694;-70
2021/07/22 04:35:18;;;;;;;14.50;10.37;;;23.80;82.70;;;;;;5046067;28;20611;-70
2021/07/22 04:37:45;;;;;;;11.43;8.87;;;23.90;82.70;;;;;;5045554;28;20210;-70
2021/07/22 04:40:12;;;;;;;17.43;13.50;;;23.90;82.60;;;;;;5043979;28;20799;-70
2021/07/22 04:42:39;;;;;;;14.80;9.90;;;23.90;82.50;;;;;;5046240;28;20615;-70
2021/07/22 04:45:06;;;;;;;11.67;9.40;;;24.00;82.50;;;;;;5045646;28;20755;-70
2021/07/22 04:47:33;;;;;;;10.90;9.53;;;24.10;82.40;;;;;;5043658;28;20215;-70
2021/07/22 04:50:00;;;;;;;12.70;9.37;;;24.20;82.00;;;;;;5045946;28;20218;-70
2021/07/22 04:52:27;;;;;;;11.40;9.40;;;24.20;81.70;;;;;;5044595;28;20215;-70
2021/07/22 04:54:54;;;;;;;10.73;8.93;;;24.20;81.50;;;;;;5046963;28;20241;-70
2021/07/22 04:57:21;;;;;;;12.67;10.17;;;24.30;81.30;;;;;;5043820;28;20271;-70
2021/07/22 04:59:48;;;;;;;10.17;9.10;;;24.40;81.20;;;;;;5043921;28;20223;-69
2021/07/22 05:02:15;;;;;;;10.97;8.93;;;24.50;81.00;;;;;;5043421;28;20227;-70
2021/07/22 05:04:43;;;;;;;13.87;10.20;;;24.50;80.60;;;;;;5043293;28;20682;-70
2021/07/22 05:07:10;;;;;;;12.87;9.77;;;24.60;80.60;;;;;;5043789;28;20218;-70
2021/07/22 05:09:38;;;;;;;16.23;9.63;;;24.60;80.40;;;;;;5047335;28;20272;-70
2021/07/22 05:12:09;;;;;;;10.60;9.50;;;24.70;80.10;;;;;;5039604;28;20639;-70
2021/07/22 05:14:39;;;;;;;12.57;9.20;;;24.80;80.10;;;;;;5040930;28;20219;-70
2021/07/22 05:17:06;;;;;;;10.63;9.53;;;24.80;79.90;;;;;;5046340;28;20229;-70
2021/07/22 05:19:33;;;;;;;15.40;9.33;;;24.80;79.90;;;;;;5043246;28;20219;-70
2021/07/22 05:22:01;;;;;;;13.37;9.87;;;24.80;80.00;;;;;;5047011;28;20238;-70
2021/07/22 05:24:28;;;;;;;11.47;9.40;;;24.80;79.90;;;;;;5043520;28;20207;-70
2021/07/22 05:26:55;;;;;;;12.60;10.97;;;24.90;80.10;;;;;;5042995;28;20626;-70
2021/07/22 05:29:22;;;;;;;13.13;10.27;;;25.00;80.10;;;;;;5039354;28;20619;-70
2021/07/22 05:31:49;;;;;;;12.10;9.73;;;25.00;80.10;;;;;;5039358;28;20226;-70
2021/07/22 05:34:16;;;;;;;10.83;9.30;;;25.10;80.00;;;;;;5043369;28;20554;-70
2021/07/22 05:36:43;;;;;;;12.33;10.40;;;25.20;79.80;;;;;;5046573;28;20218;-70
2021/07/22 05:39:11;;;;;;;11.80;9.70;;;25.30;79.60;;;;;;5044995;28;20234;-70
2021/07/22 05:41:38;;;;;;;15.27;10.43;;;25.40;79.40;;;;;;5043630;28;20227;-70
2021/07/22 05:44:05;;;;;;;13.67;9.97;;;25.40;79.00;;;;;;5046950;28;20627;-70
2021/07/22 05:46:32;;;;;;;10.53;9.47;;;25.60;79.20;;;;;;5042784;28;20214;-70
2021/07/22 05:49:00;;;;;;;12.10;8.60;;;25.70;78.90;;;;;;5046149;28;20238;-70
2021/07/22 05:51:30;;;;;;;14.73;9.27;;;25.80;78.10;;;;;;5044070;28;20214;-70
2021/07/22 05:53:58;;;;;;;10.57;9.43;;;26.00;77.30;;;;;;5045854;28;20214;-70
2021/07/22 05:56:25;;;;;;;10.43;9.37;;;26.10;76.70;;;;;;5042323;28;20279;-70
2021/07/22 05:58:54;;;;;;;12.97;9.63;;;26.20;76.40;;;;;;5043708;28;20276;-70
2021/07/22 06:01:21;;;;;;;10.47;8.90;;;26.20;76.30;;;;;;5045372;28;20315;-70
2021/07/22 06:03:48;;;;;;;11.83;9.07;;;26.40;76.30;;;;;;5043688;28;20233;-70
2021/07/22 06:06:15;;;;;;;11.63;9.10;;;26.60;75.60;;;;;;5045051;28;20222;-70
2021/07/22 06:08:47;;;;;;;12.80;8.73;;;26.70;75.20;;;;;;5043305;28;20357;-70
2021/07/22 06:11:14;;;;;;;11.80;9.00;;;26.80;74.90;;;;;;5047562;28;20218;-70
2021/07/22 06:13:42;;;;;;;14.03;9.10;;;27.00;74.50;;;;;;5043373;28;21013;-70
2021/07/22 06:16:14;;;;;;;11.03;9.30;;;27.10;73.40;;;;;;5044939;28;20218;-70
2021/07/22 06:18:42;;;;;;;14.43;8.63;;;27.20;73.90;;;;;;5041527;28;20798;-70
2021/07/22 06:21:13;;;;;;;10.33;8.60;;;27.50;73.90;;;;;;5042311;28;20235;-70
2021/07/22 06:23:41;;;;;;;9.47;8.57;;;27.70;73.40;;;;;;5037905;28;20215;-70
2021/07/22 06:26:09;;;;;;;10.93;9.10;;;28.00;72.80;;;;;;5034590;28;20608;-70
2021/07/22 06:28:36;;;;;;;11.37;8.43;;;28.30;72.00;;;;;;5045562;28;20214;-70
2021/07/22 06:31:03;;;;;;;12.43;8.77;;;28.50;70.50;;;;;;5042459;28;20281;-70
2021/07/22 06:33:30;;;;;;;13.17;9.47;;;28.60;70.00;;;;;;5045292;28;20218;-70
2021/07/22 06:35:57;;;;;;;11.43;9.07;;;28.60;70.20;;;;;;5045877;28;20240;-70
2021/07/22 06:38:28;;;;;;;11.47;9.47;;;28.80;69.60;;;;;;5042280;28;20250;-70
2021/07/22 06:40:56;;;;;;;11.23;9.03;;;28.80;69.40;;;;;;5042182;28;20215;-71
2021/07/22 06:43:23;;;;;;;14.77;10.13;;;28.90;68.90;;;;;;5045585;28;20234;-71
2021/07/22 06:45:50;;;;;;;11.50;9.17;;;29.00;68.90;;;;;;5042235;28;20594;-71
2021/07/22 06:48:17;;;;;;;10.20;9.17;;;29.20;68.70;;;;;;5041724;28;20242;-71
2021/07/22 06:50:45;;;;;;;13.10;9.10;;;29.40;67.50;;;;;;5041985;28;20215;-71
2021/07/22 06:53:11;;;;;;;10.67;9.23;;;29.50;67.10;;;;;;5044485;28;20218;-71
2021/07/22 06:55:38;;;;;;;11.57;8.97;;;29.50;66.90;;;;;;5042174;28;20215;-70
2021/07/22 06:58:06;;;;;;;13.53;9.73;;;29.50;66.20;;;;;;5044276;28;20584;-70
2021/07/22 07:00:35;;;;;;;11.27;9.43;;;29.40;67.00;;;;;;5042883;28;20225;-71
2021/07/22 07:03:06;;;;;;;10.37;9.27;;;29.60;66.70;;;;;;5043975;28;20235;-70
2021/07/22 07:05:34;;;;;;;12.63;9.90;;;29.70;65.70;;;;;;5041098;28;20214;-70
2021/07/22 07:08:02;;;;;;;11.80;9.53;;;29.50;65.80;;;;;;5041492;28;20215;-70
2021/07/22 07:10:29;;;;;;;15.63;10.00;;;29.20;66.40;;;;;;5041650;28;20670;-70
2021/07/22 07:12:57;;;;;;;12.80;9.53;;;29.00;67.20;;;;;;5044185;28;20720;-68
2021/07/22 07:15:24;;;;;;;10.87;9.50;;;29.00;68.00;;;;;;5042286;28;20225;-68
2021/07/22 07:17:52;;;;;;;11.53;9.97;;;29.00;66.90;;;;;;5041367;28;20222;-68
2021/07/22 07:20:19;;;;;;;11.93;9.60;;;29.10;66.90;;;;;;5042756;28;20206;-68
2021/07/22 07:22:46;;;;;;;11.47;9.53;;;29.20;66.70;;;;;;5042582;28;20792;-68
2021/07/22 07:25:13;;;;;;;12.93;9.70;;;29.40;67.10;;;;;;5041071;28;20211;-68
2021/07/22 07:27:40;;;;;;;13.07;9.20;;;29.60;66.10;;;;;;5041575;28;20232;-68
2021/07/22 07:30:08;;;;;;;15.87;9.67;;;29.70;65.50;;;;;;5043386;28;20211;-68
2021/07/22 07:32:35;;;;;;;12.37;9.27;;;29.70;65.10;;;;;;5043103;28;20229;-68
2021/07/22 07:35:03;;;;;;;11.73;9.70;;;29.80;64.30;;;;;;5043005;28;20618;-68
2021/07/22 07:37:30;;;;;;;13.23;8.97;;;29.90;63.50;;;;;;5043631;28;20221;-68
2021/07/22 07:39:58;;;;;;;9.53;8.67;;;29.90;63.80;;;;;;5042528;28;20281;-68
2021/07/22 07:42:26;;;;;;;11.87;8.80;;;30.00;63.70;;;;;;5043244;28;20245;-68
2021/07/22 07:44:53;;;;;;;12.70;8.60;;;30.30;62.00;;;;;;5047570;28;20272;-68
2021/07/22 07:47:20;;;;;;;8.57;7.80;;;30.40;61.50;;;;;;5046442;28;20215;-67
2021/07/22 07:49:47;;;;;;;10.93;8.37;;;30.60;60.00;;;;;;5046571;28;20217;-67
2021/07/22 07:52:15;;;;;;;9.50;7.97;;;30.80;59.30;;;;;;5046038;28;20241;-67
2021/07/22 07:54:42;;;;;;;10.50;8.17;;;31.10;59.30;;;;;;5047826;28;20623;-67
2021/07/22 07:57:09;;;;;;;9.80;7.83;;;31.30;58.50;;;;;;5045771;28;20219;-67
2021/07/22 07:59:37;;;;;;;11.90;8.77;;;31.40;57.80;;;;;;5047893;28;20233;-66
2021/07/22 08:02:04;;;;;;;10.17;8.70;;;31.30;58.70;;;;;;5045405;28;20330;-67
2021/07/22 08:04:31;;;;;;;11.53;9.60;;;31.40;59.10;;;;;;5044014;28;20199;-67
2021/07/22 08:06:58;;;;;;;9.70;8.80;;;31.60;58.90;;;;;;5045042;28;20219;-67
2021/07/22 08:09:25;;;;;;;13.33;8.27;;;31.80;58.40;;;;;;5050607;28;20491;-67
2021/07/22 08:11:52;;;;;;;9.67;8.60;;;31.90;59.10;;;;;;5044632;28;20650;-67
2021/07/22 08:14:19;;;;;;;9.50;8.17;;;32.20;57.50;;;;;;5041034;28;20222;-67
2021/07/22 08:16:46;;;;;;;9.83;7.63;;;32.40;56.70;;;;;;5040542;28;20246;-67
2021/07/22 08:19:13;;;;;;;40.97;10.87;;;32.60;55.20;;;;;;5042413;28;20659;-67
2021/07/22 08:21:40;;;;;;;15.87;9.23;;;32.70;55.80;;;;;;5044431;28;20243;-67
2021/07/22 08:24:08;;;;;;;23.43;9.13;;;32.80;55.70;;;;;;5047838;28;20297;-67
2021/07/22 08:26:35;;;;;;;11.23;8.83;;;33.00;55.60;;;;;;5044603;28;20523;-66
2021/07/22 08:29:02;;;;;;;10.00;8.27;;;33.10;55.30;;;;;;5047710;28;20523;-67
2021/07/22 08:31:30;;;;;;;9.93;8.73;;;33.30;54.40;;;;;;5044990;28;20223;-67
2021/07/22 08:33:56;;;;;;;8.90;8.00;;;33.40;54.10;;;;;;5047145;28;20587;-67
2021/07/22 08:36:24;;;;;;;14.10;8.30;;;33.30;53.70;;;;;;5043801;28;21053;-67
2021/07/22 08:38:51;;;;;;;11.33;8.73;;;33.20;53.30;;;;;;5044916;28;20321;-67
2021/07/22 08:41:18;;;;;;;13.90;8.87;;;33.10;53.60;;;;;;5043819;28;20668;-67
2021/07/22 08:43:50;;;;;;;9.93;8.53;;;33.20;53.80;;;;;;5048215;28;20202;-67
2021/07/22 08:46:21;;;;;;;11.83;7.80;;;33.30;53.70;;;;;;5046386;28;20297;-66
2021/07/22 08:48:47;;;;;;;8.50;7.23;;;33.40;52.80;;;;;;5043456;28;20210;-66
2021/07/22 08:51:14;;;;;;;11.27;8.23;;;33.60;50.70;;;;;;5044492;28;20230;-67
2021/07/22 08:53:42;;;;;;;12.30;7.17;;;33.40;49.10;;;;;;5045339;28;20214;-66
2021/07/22 08:56:09;;;;;;;10.47;7.87;;;33.30;50.30;;;;;;5041355;28;20272;-66
2021/07/22 08:58:39;;;;;;;10.87;7.47;;;33.40;50.20;;;;;;5046663;28;20211;-67
2021/07/22 09:01:11;;;;;;;10.13;7.00;;;33.60;50.20;;;;;;5044377;28;20215;-66
2021/07/22 09:03:38;;;;;;;9.37;7.00;;;33.70;47.70;;;;;;5047091;28;20679;-67
2021/07/22 09:06:24;;;;;;;11.73;7.53;;;33.50;48.20;;;;;;5043662;28;20219;-67
2021/07/22 09:08:51;;;;;;;10.17;8.03;;;33.30;48.30;;;;;;5043429;28;20214;-67
2021/07/22 09:11:18;;;;;;;12.00;7.87;;;33.30;49.40;;;;;;5043486;28;20212;-67
2021/07/22 09:13:49;;;;;;;9.07;7.77;;;33.40;49.70;;;;;;5044726;28;20215;-67
2021/07/22 09:16:34;;;;;;;9.03;7.67;;;33.70;49.10;;;;;;5045404;28;20554;-67
2021/07/22 09:19:01;;;;;;;11.63;7.20;;;33.90;48.10;;;;;;5039850;28;20277;-66
2021/07/22 09:21:28;;;;;;;9.23;7.23;;;34.00;47.80;;;;;;5043043;28;20210;-67
2021/07/22 09:24:15;;;;;;;9.80;7.83;;;34.10;47.20;;;;;;5040056;28;20635;-67
2021/07/22 09:26:46;;;;;;;9.30;6.67;;;34.10;46.70;;;;;;5044531;28;20269;-67
2021/07/22 09:29:13;;;;;;;10.20;7.50;;;34.00;46.10;;;;;;5044458;28;20211;-67
2021/07/22 09:31:42;;;;;;;12.63;7.87;;;33.90;46.70;;;;;;5045746;28;20207;-67
2021/07/22 09:34:15;;;;;;;10.00;6.87;;;33.90;47.20;;;;;;5044346;28;20268;-67
2021/07/22 09:36:42;;;;;;;8.53;6.97;;;33.90;45.90;;;;;;5046371;28;20798;-67
2021/07/22 09:39:21;;;;;;;9.03;6.97;;;33.90;46.80;;;;;;5045115;28;20235;-66
2021/07/22 09:42:02;;;;;;;10.87;7.40;;;34.00;45.20;;;;;;5039020;28;20215;-66
2021/07/22 09:44:31;;;;;;;9.67;7.57;;;34.00;45.00;;;;;;5047407;28;20207;-66
2021/07/22 09:47:02;;;;;;;8.30;7.00;;;34.00;46.50;;;;;;5044245;28;20222;-66
2021/07/22 09:49:31;;;;;;;8.60;7.17;;;34.00;46.10;;;;;;5044592;28;20210;-66
2021/07/22 09:52:02;;;;;;;8.30;7.03;;;34.00;45.80;;;;;;5043686;28;20223;-66
2021/07/22 09:54:34;;;;;;;11.10;7.70;;;34.10;45.20;;;;;;5046294;28;20224;-66
2021/07/22 09:57:02;;;;;;;8.27;6.90;;;34.20;45.30;;;;;;5039197;28;20218;-66
2021/07/22 09:59:30;;;;;;;9.37;7.60;;;34.20;45.30;;;;;;5042958;28;20210;-66
2021/07/22 10:02:05;;;;;;;9.67;6.83;;;34.30;44.60;;;;;;5038737;28;20273;-67
2021/07/22 10:04:35;;;;;;;7.63;6.70;;;34.30;44.10;;;;;;5039905;28;20215;-67
2021/07/22 10:07:03;;;;;;;10.57;7.07;;;34.20;44.90;;;;;;5045509;28;20207;-67
2021/07/22 10:09:34;;;;;;;9.67;6.80;;;34.30;44.00;;;;;;5044856;28;20313;-67
2021/07/22 10:12:02;;;;;;;8.93;6.77;;;34.30;43.30;;;;;;5043717;28;20218;-67
2021/07/22 10:14:31;;;;;;;9.27;7.13;;;34.20;45.00;;;;;;5044749;28;20210;-67
2021/07/22 10:17:01;;;;;;;9.23;6.50;;;34.30;44.60;;;;;;5043841;28;20226;-66
2021/07/22 10:19:31;;;;;;;6.97;6.27;;;34.50;43.80;;;;;;5041895;28;20857;-66
2021/07/22 10:22:00;;;;;;;10.30;7.17;;;34.60;43.60;;;;;;5044188;28;20218;-67
2021/07/22 10:24:29;;;;;;;9.30;7.57;;;34.70;43.70;;;;;;5044587;28;20584;-67
2021/07/22 10:26:57;;;;;;;7.37;6.77;;;34.90;43.90;;;;;;5041603;28;20623;-67
2021/07/22 10:29:25;;;;;;;7.87;6.50;;;35.10;44.10;;;;;;5044345;28;20219;-67
2021/07/22 10:31:54;;;;;;;9.23;7.00;;;35.30;43.30;;;;;;5043597;28;20225;-67
2021/07/22 10:34:23;;;;;;;8.13;6.63;;;35.30;43.20;;;;;;5044357;28;20207;-67
2021/07/22 10:36:50;;;;;;;8.90;6.80;;;35.40;42.40;;;;;;5043595;28;20574;-67
2021/07/22 10:39:56;;;;;;;10.67;6.93;;;35.40;42.80;;;;;;5043899;28;20250;-67
2021/07/22 10:42:38;;;;;;;10.17;7.50;;;35.40;43.30;;;;;;5045151;28;20234;-67
2021/07/22 10:45:27;;;;;;;6.97;6.27;;;35.50;41.90;;;;;;5037882;28;20202;-67
2021/07/22 10:48:10;;;;;;;9.83;7.03;;;35.40;41.20;;;;;;5038487;28;20229;-67
2021/07/22 10:50:40;;;;;;;7.50;6.50;;;35.20;41.90;;;;;;5042498;28;20211;-67
2021/07/22 10:53:07;;;;;;;7.83;6.40;;;35.20;42.20;;;;;;5043221;28;20612;-67
2021/07/22 10:55:40;;;;;;;10.70;6.87;;;35.30;42.50;;;;;;5044077;28;20219;-67
2021/07/22 10:58:35;;;;;;;13.80;7.17;;;35.40;42.70;;;;;;5042960;28;20222;-67
2021/07/22 11:01:04;;;;;;;10.97;6.93;;;35.50;42.50;;;;;;5042785;28;20211;-67
2021/07/22 11:03:38;;;;;;;8.60;6.63;;;35.50;42.50;;;;;;5042641;28;20296;-67
2021/07/22 11:06:10;;;;;;;7.57;6.43;;;35.60;41.60;;;;;;5044858;28;20210;-67
2021/07/22 11:08:39;;;;;;;9.43;7.10;;;35.50;40.80;;;;;;5037699;28;20211;-67
2021/07/22 11:11:12;;;;;;;9.80;7.03;;;35.50;41.50;;;;;;5038050;28;20222;-67
2021/07/22 11:13:44;;;;;;;7.30;6.60;;;35.30;41.20;;;;;;5038367;28;20218;-67
2021/07/22 11:16:21;;;;;;;9.00;6.50;;;35.20;41.90;;;;;;5042982;28;20211;-67
2021/07/22 11:18:57;;;;;;;9.63;6.40;;;35.20;42.50;;;;;;5042789;28;20296;-67
2021/07/22 11:21:30;;;;;;;9.33;6.70;;;35.30;42.80;;;;;;5045471;28;20301;-67
2021/07/22 11:24:16;;;;;;;9.00;6.83;;;35.40;41.40;;;;;;5038398;28;20270;-67
2021/07/22 11:26:48;;;;;;;8.33;6.93;;;35.40;42.00;;;;;;5042680;28;20214;-67
2021/07/22 11:29:16;;;;;;;9.37;6.73;;;35.30;41.30;;;;;;5044438;28;20245;-67
2021/07/22 11:31:50;;;;;;;7.77;6.43;;;35.20;42.40;;;;;;5041842;28;20273;-67
2021/07/22 11:34:39;;;;;;;12.93;6.43;;;35.20;42.60;;;;;;5037050;28;20207;-67
2021/07/22 11:37:07;;;;;;;8.60;6.67;;;35.20;42.00;;;;;;5042879;28;20215;-67
2021/07/22 11:39:38;;;;;;;7.30;6.70;;;35.20;42.10;;;;;;5042233;28;20591;-67
2021/07/22 11:42:13;;;;;;;8.20;6.90;;;35.20;42.40;;;;;;5044475;28;20275;-67
2021/07/22 11:45:06;;;;;;;9.73;6.90;;;35.00;41.80;;;;;;5042213;28;20220;-67
2021/07/22 11:47:33;;;;;;;7.80;6.43;;;34.90;42.20;;;;;;5042088;28;20211;-67
2021/07/22 11:50:01;;;;;;;7.43;6.00;;;35.00;42.00;;;;;;5040530;28;20214;-67
2021/07/22 11:52:28;;;;;;;7.43;5.93;;;35.00;41.60;;;;;;5041724;28;20298;-67
2021/07/22 11:55:11;;;;;;;7.80;7.00;;;35.00;42.80;;;;;;5043990;28;20222;-67
2021/07/22 11:57:39;;;;;;;10.07;6.70;;;35.00;42.30;;;;;;5039313;28;20223;-66
2021/07/22 12:00:21;;;;;;;7.83;6.50;;;34.90;41.20;;;;;;5040126;28;20246;-66
2021/07/22 12:02:56;;;;;;;7.30;6.33;;;34.80;42.30;;;;;;5041810;28;20277;-67
2021/07/22 12:05:24;;;;;;;9.87;6.37;;;34.80;42.50;;;;;;5044801;28;20214;-67
2021/07/22 12:07:53;;;;;;;9.83;6.73;;;34.90;42.30;;;;;;5041082;28;20211;-67
2021/07/22 12:10:28;;;;;;;8.77;6.60;;;35.00;42.20;;;;;;5037112;28;20217;-67
2021/07/22 12:13:00;;;;;;;7.47;6.70;;;35.10;42.30;;;;;;5038754;28;20214;-67
2021/07/22 12:15:27;;;;;;;7.13;6.43;;;35.10;42.20;;;;;;5041396;28;20225;-67
2021/07/22 12:17:54;;;;;;;7.90;6.60;;;35.20;42.10;;;;;;5043383;28;20220;-67
2021/07/22 12:20:21;;;;;;;9.07;6.87;;;35.10;42.10;;;;;;5044422;28;20578;-67
2021/07/22 12:22:48;;;;;;;7.23;6.53;;;35.10;42.40;;;;;;5043656;28;20242;-67
2021/07/22 12:25:16;;;;;;;7.77;6.67;;;35.10;42.90;;;;;;5041358;28;20628;-67
2021/07/22 12:27:54;;;;;;;12.33;6.40;;;35.20;42.10;;;;;;5045611;28;20740;-67
2021/07/22 12:30:27;;;;;;;7.17;6.50;;;35.30;42.40;;;;;;5046455;28;20210;-67
2021/07/22 12:33:01;;;;;;;10.43;7.13;;;35.40;41.40;;;;;;5045567;28;20221;-67
2021/07/22 12:35:44;;;;;;;6.90;6.30;;;35.40;40.70;;;;;;5047918;28;20296;-67
2021/07/22 12:38:19;;;;;;;9.57;6.30;;;35.30;41.80;;;;;;5043102;28;20326;-67
2021/07/22 12:40:56;;;;;;;7.83;6.67;;;35.30;41.80;;;;;;5045582;28;20202;-67
2021/07/22 12:43:24;;;;;;;7.00;6.30;;;35.40;41.80;;;;;;5046463;28;20226;-67
2021/07/22 12:45:53;;;;;;;8.63;6.30;;;35.50;41.40;;;;;;5040875;28;20211;-67